Time;durP1;ratioP1;P1;durP2;ratioP2;P2;SDS_P1;SDS_P2;PMS_P1;PMS_P2;Temp;Humidity;BMP_temperature;BMP_pressure;BME280_temperature;BME280_humidity;BME280_pressure;Samples;Min_cycle;Max_cycle;Signal;HPM_P1;HPM_P2
2021/07/23 00:00:50;;;;;;;18.80;11.10;;;;;;;;;;5042385;28;20162;-84
2021/07/23 00:03:16;;;;;;;18.60;11.77;;;;;;;;;;5044927;28;20056;-84
2021/07/23 00:05:41;;;;;;;17.30;11.80;;;;;;;;;;5045529;28;20542;-84
2021/07/23 00:08:06;;;;;;;19.50;11.05;;;;;;;;;;5048327;28;20095;-84
2021/07/23 00:10:32;;;;;;;16.85;11.40;;;;;;;;;;5061616;28;20025;-84
2021/07/23 00:12:57;;;;;;;17.88;11.27;;;;;;;;;;5047956;28;20327;-84
2021/07/23 00:15:23;;;;;;;19.65;12.07;;;;;;;;;;5042518;28;20037;-84
2021/07/23 00:17:48;;;;;;;19.85;11.43;;;;;;;;;;5049418;28;20079;-83
2021/07/23 00:20:14;;;;;;;19.83;11.65;;;;;;;;;;5045172;28;20078;-84
2021/07/23 00:22:39;;;;;;;18.45;10.93;;;;;;;;;;5042665;28;20083;-84
2021/07/23 00:25:05;;;;;;;19.63;11.80;;;;;;;;;;5042469;28;20021;-84
2021/07/23 00:27:30;;;;;;;18.65;11.43;;;;;;;;;;5041442;28;20322;-84
2021/07/23 00:29:56;;;;;;;25.92;12.23;;;;;;;;;;5050598;28;20078;-84
2021/07/23 00:32:21;;;;;;;18.92;11.27;;;;;;;;;;5040677;28;20544;-84
2021/07/23 00:34:46;;;;;;;16.17;11.13;;;;;;;;;;5045550;28;20075;-85
2021/07/23 00:37:12;;;;;;;18.75;11.50;;;;;;;;;;5045417;28;20032;-84
2021/07/23 00:39:37;;;;;;;15.70;10.82;;;;;;;;;;5050629;28;20025;-85
2021/07/23 00:42:03;;;;;;;18.27;11.23;;;;;;;;;;5042110;28;20025;-84
2021/07/23 00:44:28;;;;;;;19.30;11.13;;;;;;;;;;5051022;28;20425;-86
2021/07/23 00:46:57;;;;;;;16.58;11.25;;;;;;;;;;5050478;28;20021;-84
2021/07/23 00:49:23;;;;;;;19.10;12.00;;;;;;;;;;5044353;28;20056;-85
2021/07/23 00:51:50;;;;;;;17.73;11.63;;;;;;;;;;5035631;28;20558;-85
2021/07/23 00:54:16;;;;;;;18.63;11.48;;;;;;;;;;5042329;28;20152;-85
2021/07/23 00:56:42;;;;;;;18.65;12.00;;;;;;;;;;5046052;28;20028;-85
2021/07/23 00:59:08;;;;;;;20.65;11.63;;;;;;;;;;5041085;28;20024;-86
2021/07/23 01:01:34;;;;;;;18.83;11.00;;;;;;;;;;5037211;28;20025;-86
2021/07/23 01:04:01;;;;;;;22.13;11.93;;;;;;;;;;5045743;28;20052;-85
2021/07/23 01:06:27;;;;;;;17.15;11.32;;;;;;;;;;5043498;28;20033;-85
2021/07/23 01:08:53;;;;;;;17.52;10.70;;;;;;;;;;5045477;28;20094;-85
2021/07/23 01:11:18;;;;;;;18.85;12.05;;;;;;;;;;5040879;28;20032;-84
2021/07/23 01:13:44;;;;;;;19.33;10.48;;;;;;;;;;5048811;28;20016;-85
2021/07/23 01:16:11;;;;;;;19.35;11.48;;;;;;;;;;5043598;28;20120;-85
2021/07/23 01:18:37;;;;;;;17.17;11.27;;;;;;;;;;5045724;28;20079;-85
2021/07/23 01:21:03;;;;;;;18.08;10.77;;;;;;;;;;5047891;28;20107;-85
2021/07/23 01:23:33;;;;;;;19.00;11.23;;;;;;;;;;5043482;28;20200;-85
2021/07/23 01:26:00;;;;;;;18.85;12.45;;;;;;;;;;5049717;28;20033;-85
2021/07/23 01:28:28;;;;;;;19.42;11.57;;;;;;;;;;5040619;28;20025;-85
2021/07/23 01:30:53;;;;;;;18.98;11.40;;;;;;;;;;5045555;28;20024;-84
2021/07/23 01:33:19;;;;;;;20.55;12.23;;;;;;;;;;5046308;28;20099;-85
2021/07/23 01:35:45;;;;;;;17.85;11.52;;;;;;;;;;5061917;28;20116;-84
2021/07/23 01:38:10;;;;;;;20.50;12.32;;;;;;;;;;5043189;28;20096;-85
2021/07/23 01:40:36;;;;;;;18.35;11.30;;;;;;;;;;5045011;28;20024;-85
2021/07/23 01:43:02;;;;;;;19.77;11.23;;;;;;;;;;5048570;28;20036;-85
2021/07/23 01:45:27;;;;;;;18.75;11.63;;;;;;;;;;5039760;28;20027;-85
2021/07/23 01:47:53;;;;;;;20.70;11.82;;;;;;;;;;5042952;28;20029;-85
2021/07/23 01:50:20;;;;;;;17.77;10.90;;;;;;;;;;5046955;28;20033;-85
2021/07/23 01:52:45;;;;;;;19.80;11.27;;;;;;;;;;5049080;28;20027;-85
2021/07/23 01:55:11;;;;;;;19.02;11.85;;;;;;;;;;5043279;28;20032;-85
2021/07/23 01:57:36;;;;;;;18.80;11.60;;;;;;;;;;5046251;28;20071;-85
2021/07/23 02:00:04;;;;;;;19.50;12.20;;;;;;;;;;5042232;28;20024;-85
2021/07/23 02:02:29;;;;;;;19.17;11.82;;;;;;;;;;5045651;28;20090;-85
2021/07/23 02:04:58;;;;;;;19.48;11.70;;;;;;;;;;5044309;28;20032;-85
2021/07/23 02:07:23;;;;;;;17.23;11.18;;;;;;;;;;5048233;28;20021;-85
2021/07/23 02:09:48;;;;;;;18.25;10.88;;;;;;;;;;5038299;28;20563;-85
2021/07/23 02:12:14;;;;;;;20.48;11.65;;;;;;;;;;5050178;28;20028;-84
2021/07/23 02:14:39;;;;;;;19.17;11.90;;;;;;;;;;5045128;28;20461;-85
2021/07/23 02:17:05;;;;;;;20.48;11.10;;;;;;;;;;5047717;28;20377;-85
2021/07/23 02:19:30;;;;;;;17.00;10.85;;;;;;;;;;5047479;28;20025;-85
2021/07/23 02:21:56;;;;;;;18.73;11.00;;;;;;;;;;5049920;28;20029;-85
2021/07/23 02:24:21;;;;;;;19.73;12.48;;;;;;;;;;5040691;28;20029;-86
2021/07/23 02:26:46;;;;;;;18.88;11.68;;;;;;;;;;5051078;28;20025;-85
2021/07/23 02:29:12;;;;;;;20.67;11.40;;;;;;;;;;5040786;28;20436;-84
2021/07/23 02:31:37;;;;;;;18.42;10.88;;;;;;;;;;5048854;28;20496;-84
2021/07/23 02:34:03;;;;;;;816.83;83.35;;;;;;;;;;5044953;28;20116;-84
2021/07/23 02:36:28;;;;;;;19.60;11.85;;;;;;;;;;5056536;28;20060;-84
2021/07/23 02:38:54;;;;;;;18.65;11.02;;;;;;;;;;5039548;28;20052;-85
2021/07/23 02:41:19;;;;;;;20.88;11.93;;;;;;;;;;5047431;28;20028;-84
2021/07/23 02:43:48;;;;;;;18.55;11.45;;;;;;;;;;5040614;28;20056;-85
2021/07/23 02:46:13;;;;;;;22.27;11.88;;;;;;;;;;5044697;28;20031;-85
2021/07/23 02:48:38;;;;;;;19.42;11.85;;;;;;;;;;5042875;28;20025;-85
2021/07/23 02:51:04;;;;;;;20.20;12.68;;;;;;;;;;5050131;28;20505;-85
2021/07/23 02:53:29;;;;;;;19.05;12.52;;;;;;;;;;5039884;28;20028;-85
2021/07/23 02:55:55;;;;;;;20.10;12.60;;;;;;;;;;5042876;28;20037;-84
2021/07/23 02:58:20;;;;;;;20.60;12.15;;;;;;;;;;5042076;28;20136;-84
2021/07/23 03:00:46;;;;;;;19.80;11.98;;;;;;;;;;5038225;28;20037;-84
2021/07/23 03:03:11;;;;;;;18.92;12.15;;;;;;;;;;5048805;28;20021;-84
2021/07/23 03:05:37;;;;;;;19.85;12.27;;;;;;;;;;5046012;28;20031;-84
2021/07/23 03:08:02;;;;;;;20.85;12.80;;;;;;;;;;5045565;28;20029;-84
2021/07/23 03:10:27;;;;;;;20.10;12.98;;;;;;;;;;5050043;28;20044;-84
2021/07/23 03:12:53;;;;;;;19.25;12.55;;;;;;;;;;5049758;28;20393;-84
2021/07/23 03:15:19;;;;;;;19.73;12.13;;;;;;;;;;5051778;28;20036;-85
2021/07/23 03:17:45;;;;;;;19.15;12.93;;;;;;;;;;5048207;28;20378;-84
2021/07/23 03:20:11;;;;;;;22.00;12.27;;;;;;;;;;5051225;28;20031;-84
2021/07/23 03:22:36;;;;;;;18.83;12.05;;;;;;;;;;5048872;28;20025;-84
2021/07/23 03:25:02;;;;;;;20.17;12.82;;;;;;;;;;5050288;28;20104;-84
2021/07/23 03:27:28;;;;;;;18.30;12.10;;;;;;;;;;5045750;28;20056;-85
2021/07/23 03:29:54;;;;;;;19.23;13.07;;;;;;;;;;5047200;28;20066;-84
2021/07/23 03:32:20;;;;;;;21.60;12.52;;;;;;;;;;5045765;28;20595;-85
2021/07/23 03:34:45;;;;;;;19.30;12.13;;;;;;;;;;5050966;28;20025;-85
2021/07/23 03:37:11;;;;;;;21.92;13.18;;;;;;;;;;5048623;28;20095;-84
2021/07/23 03:39:36;;;;;;;21.88;12.85;;;;;;;;;;5044585;28;20052;-85
2021/07/23 03:42:02;;;;;;;21.90;12.85;;;;;;;;;;5039720;28;20104;-85
2021/07/23 03:44:28;;;;;;;20.77;12.60;;;;;;;;;;5049627;28;20112;-85
2021/07/23 03:46:59;;;;;;;18.63;12.18;;;;;;;;;;5050696;28;20028;-85
2021/07/23 03:49:24;;;;;;;20.48;12.05;;;;;;;;;;5050616;28;20025;-85
2021/07/23 03:51:50;;;;;;;19.33;12.82;;;;;;;;;;5041791;28;20017;-85
2021/07/23 03:54:15;;;;;;;22.00;13.30;;;;;;;;;;5049836;28;20385;-85
2021/07/23 03:56:41;;;;;;;18.60;12.13;;;;;;;;;;5047306;28;20047;-85
2021/07/23 03:59:06;;;;;;;21.50;12.88;;;;;;;;;;5048045;28;20021;-85
2021/07/23 04:01:32;;;;;;;20.08;12.20;;;;;;;;;;5050744;28;20135;-85
2021/07/23 04:03:57;;;;;;;18.38;12.05;;;;;;;;;;5049140;28;20104;-85
2021/07/23 04:06:23;;;;;;;21.73;14.07;;;;;;;;;;5039749;28;20052;-85
2021/07/23 04:08:49;;;;;;;20.25;12.60;;;;;;;;;;5038031;28;20104;-85
2021/07/23 04:11:16;;;;;;;22.38;11.85;;;;;;;;;;5044551;28;20025;-85
2021/07/23 04:13:41;;;;;;;19.70;13.38;;;;;;;;;;5047413;28;20028;-85
2021/07/23 04:16:07;;;;;;;22.40;12.60;;;;;;;;;;5045518;28;20496;-85
2021/07/23 04:18:33;;;;;;;19.52;12.65;;;;;;;;;;5044189;28;20033;-85
2021/07/23 04:20:58;;;;;;;20.85;13.07;;;;;;;;;;5046512;28;20033;-85
2021/07/23 04:23:23;;;;;;;22.17;14.05;;;;;;;;;;5050237;28;20052;-85
2021/07/23 04:25:49;;;;;;;20.83;13.60;;;;;;;;;;5046946;28;20408;-85
2021/07/23 04:28:14;;;;;;;21.38;12.52;;;;;;;;;;5043375;28;20040;-84
2021/07/23 04:30:40;;;;;;;20.05;13.23;;;;;;;;;;5050470;28;20480;-85
2021/07/23 04:33:05;;;;;;;21.63;13.95;;;;;;;;;;5049781;28;20060;-85
2021/07/23 04:35:31;;;;;;;21.52;13.07;;;;;;;;;;5046515;28;20029;-83
2021/07/23 04:37:57;;;;;;;16.88;11.02;;;;;;;;;;5045281;28;20041;-82
2021/07/23 04:40:22;;;;;;;19.58;11.88;;;;;;;;;;5047928;28;20039;-82
2021/07/23 04:42:48;;;;;;;20.70;12.70;;;;;;;;;;5044081;28;20029;-85
2021/07/23 04:45:14;;;;;;;19.75;12.38;;;;;;;;;;5039994;28;20083;-85
2021/07/23 04:47:39;;;;;;;22.40;12.75;;;;;;;;;;5041147;28;20028;-86
2021/07/23 04:50:05;;;;;;;20.65;12.55;;;;;;;;;;5046116;28;20032;-88
2021/07/23 04:52:30;;;;;;;23.40;13.20;;;;;;;;;;5039346;28;20021;-82
2021/07/23 04:54:56;;;;;;;23.60;13.32;;;;;;;;;;5042939;28;20442;-83
2021/07/23 04:57:27;;;;;;;22.00;12.63;;;;;;;;;;5037266;28;20025;-83
2021/07/23 04:59:53;;;;;;;25.38;13.93;;;;;;;;;;5036872;28;20086;-84
2021/07/23 05:02:19;;;;;;;20.13;12.45;;;;;;;;;;5046990;28;20037;-83
2021/07/23 05:04:45;;;;;;;23.60;13.23;;;;;;;;;;5036866;28;20529;-84
2021/07/23 05:07:10;;;;;;;22.73;13.45;;;;;;;;;;5046151;28;20021;-83
2021/07/23 05:09:36;;;;;;;22.17;13.73;;;;;;;;;;5047299;28;20361;-83
2021/07/23 05:12:02;;;;;;;21.55;13.00;;;;;;;;;;5047256;28;20031;-83
2021/07/23 05:14:28;;;;;;;21.50;13.38;;;;;;;;;;5046185;28;20021;-83
2021/07/23 05:16:54;;;;;;;26.15;13.30;;;;;;;;;;5036273;28;20091;-82
2021/07/23 05:19:20;;;;;;;24.60;13.88;;;;;;;;;;5044804;28;20036;-82
2021/07/23 05:21:46;;;;;;;22.38;13.70;;;;;;;;;;5039730;28;20051;-84
2021/07/23 05:24:13;;;;;;;23.80;13.77;;;;;;;;;;5040350;28;20047;-83
2021/07/23 05:26:38;;;;;;;24.98;14.68;;;;;;;;;;5042769;28;20025;-83
2021/07/23 05:29:05;;;;;;;24.52;14.40;;;;;;;;;;5042048;28;20318;-82
2021/07/23 05:31:31;;;;;;;24.73;14.00;;;;;;;;;;5038448;28;20021;-83
2021/07/23 05:33:57;;;;;;;23.52;14.00;;;;;;;;;;5039372;28;20477;-81
2021/07/23 05:36:24;;;;;;;22.45;14.25;;;;;;;;;;5036484;28;20028;-81
2021/07/23 05:38:50;;;;;;;25.48;15.23;;;;;;;;;;5045647;28;20096;-80
2021/07/23 05:41:15;;;;;;;22.63;15.25;;;;;;;;;;5036870;28;20029;-79
2021/07/23 05:43:41;;;;;;;23.70;14.52;;;;;;;;;;5043115;28;20519;-79
2021/07/23 05:46:07;;;;;;;22.58;14.30;;;;;;;;;;5045898;28;20028;-81
2021/07/23 05:48:37;;;;;;;26.58;13.77;;;;;;;;;;5045236;28;20059;-81
2021/07/23 05:51:03;;;;;;;24.13;14.38;;;;;;;;;;5045395;28;20025;-81
2021/07/23 05:53:29;;;;;;;25.17;14.88;;;;;;;;;;5041398;28;20028;-79
2021/07/23 05:55:54;;;;;;;28.83;15.98;;;;;;;;;;5041070;28;20033;-78
2021/07/23 05:58:20;;;;;;;24.70;15.70;;;;;;;;;;5046841;28;20484;-80
2021/07/23 06:00:45;;;;;;;25.48;15.15;;;;;;;;;;5031868;28;20060;-80
2021/07/23 06:03:11;;;;;;;24.02;14.88;;;;;;;;;;5041888;28;20026;-79
2021/07/23 06:05:36;;;;;;;25.58;14.50;;;;;;;;;;5034844;28;20104;-79
2021/07/23 06:08:02;;;;;;;24.60;14.63;;;;;;;;;;5045337;28;20044;-79
2021/07/23 06:10:27;;;;;;;23.02;15.00;;;;;;;;;;5045979;28;20037;-81
2021/07/23 06:12:53;;;;;;;23.02;14.35;;;;;;;;;;5040029;28;20032;-80
2021/07/23 06:15:18;;;;;;;23.13;15.00;;;;;;;;;;5044828;28;20028;-79
2021/07/23 06:17:44;;;;;;;23.23;14.23;;;;;;;;;;5047550;28;20021;-79
2021/07/23 06:20:10;;;;;;;22.27;13.40;;;;;;;;;;5041213;28;20476;-79
2021/07/23 06:22:35;;;;;;;25.40;14.18;;;;;;;;;;5040834;28;20025;-80
2021/07/23 06:25:01;;;;;;;22.85;15.75;;;;;;;;;;5064190;28;20075;-80
2021/07/23 06:27:26;;;;;;;26.52;16.95;;;;;;;;;;5047677;28;20389;-80
2021/07/23 06:29:56;;;;;;;31.08;16.42;;;;;;;;;;5042692;28;20025;-80
2021/07/23 06:32:27;;;;;;;24.80;15.73;;;;;;;;;;5041817;28;20021;-81
2021/07/23 06:34:53;;;;;;;20.95;13.98;;;;;;;;;;5044716;28;20040;-80
2021/07/23 06:37:21;;;;;;;24.95;14.88;;;;;;;;;;5041852;28;20036;-79
2021/07/23 06:39:48;;;;;;;24.30;14.82;;;;;;;;;;5046879;28;20412;-78
2021/07/23 06:42:14;;;;;;;22.30;14.90;;;;;;;;;;5044478;28;20033;-79
2021/07/23 06:44:40;;;;;;;22.25;14.45;;;;;;;;;;5045658;28;20053;-79
2021/07/23 06:47:05;;;;;;;27.13;14.30;;;;;;;;;;5048416;28;20059;-79
2021/07/23 06:49:31;;;;;;;21.42;14.32;;;;;;;;;;5044980;28;20481;-79
2021/07/23 06:51:56;;;;;;;21.88;13.52;;;;;;;;;;5042845;28;20036;-79
2021/07/23 06:54:22;;;;;;;22.02;14.38;;;;;;;;;;5046512;28;20087;-79
2021/07/23 06:56:49;;;;;;;22.10;14.73;;;;;;;;;;5041971;28;20079;-78
2021/07/23 06:59:15;;;;;;;24.13;14.30;;;;;;;;;;5044719;28;20508;-79
2021/07/23 07:01:40;;;;;;;23.42;15.07;;;;;;;;;;5046682;28;20068;-79
2021/07/23 07:04:06;;;;;;;22.38;14.98;;;;;;;;;;5044775;28;20024;-79
2021/07/23 07:06:31;;;;;;;24.67;15.10;;;;;;;;;;5042421;28;20048;-79
2021/07/23 07:08:57;;;;;;;23.63;14.23;;;;;;;;;;5046167;28;20034;-79
2021/07/23 07:11:22;;;;;;;23.10;15.10;;;;;;;;;;5045350;28;20029;-80
2021/07/23 07:13:47;;;;;;;20.77;13.55;;;;;;;;;;5047022;28;20071;-79
2021/07/23 07:16:13;;;;;;;22.48;14.35;;;;;;;;;;5040743;28;20017;-78
2021/07/23 07:18:38;;;;;;;24.15;15.15;;;;;;;;;;5046657;28;20075;-79
2021/07/23 07:21:07;;;;;;;19.75;13.80;;;;;;;;;;5043113;28;20032;-78
2021/07/23 07:23:33;;;;;;;24.47;15.13;;;;;;;;;;5042443;28;20040;-78
2021/07/23 07:25:58;;;;;;;24.13;15.05;;;;;;;;;;5040988;28;20033;-78
2021/07/23 07:28:23;;;;;;;22.92;14.30;;;;;;;;;;5042660;28;20099;-79
2021/07/23 07:30:49;;;;;;;24.17;14.23;;;;;;;;;;5047963;28;20526;-79
2021/07/23 07:33:14;;;;;;;25.20;14.35;;;;;;;;;;5043658;28;20128;-79
2021/07/23 07:35:44;;;;;;;23.65;14.55;;;;;;;;;;5041987;28;20040;-78
2021/07/23 07:38:10;;;;;;;29.00;16.38;;;;;;;;;;5046897;28;20476;-78
2021/07/23 07:40:37;;;;;;;21.20;14.70;;;;;;;;;;5046959;28;20029;-79
2021/07/23 07:43:02;;;;;;;24.60;15.70;;;;;;;;;;5044460;28;20060;-78
2021/07/23 07:45:28;;;;;;;21.35;14.85;;;;;;;;;;5048497;28;20055;-78
2021/07/23 07:47:54;;;;;;;23.17;14.02;;;;;;;;;;5048786;28;20503;-78
2021/07/23 07:50:19;;;;;;;22.52;14.23;;;;;;;;;;5047500;28;20032;-78
2021/07/23 07:52:44;;;;;;;22.98;15.40;;;;;;;;;;5041166;28;20052;-79
2021/07/23 07:55:10;;;;;;;23.85;14.43;;;;;;;;;;5043985;28;20439;-79
2021/07/23 07:57:36;;;;;;;23.85;14.70;;;;;;;;;;5046276;28;20040;-79
2021/07/23 08:00:02;;;;;;;22.08;14.38;;;;;;;;;;5043184;28;20557;-79
2021/07/23 08:02:27;;;;;;;24.48;15.25;;;;;;;;;;5044550;28;20453;-78
2021/07/23 08:04:53;;;;;;;23.40;13.73;;;;;;;;;;5045249;28;20179;-78
2021/07/23 08:07:21;;;;;;;22.88;14.80;;;;;;;;;;5047479;28;20037;-79
2021/07/23 08:10:15;;;;;;;23.47;13.80;;;;;;;;;;5038406;28;20030;-79
2021/07/23 08:12:37;;;;;;;24.67;14.88;;;;;;;;;;5044591;28;20052;-78
2021/07/23 08:15:03;;;;;;;22.42;14.40;;;;;;;;;;5040922;28;20207;-78
2021/07/23 08:17:29;;;;;;;22.58;13.50;;;;;;;;;;5047803;28;20178;-78
2021/07/23 08:19:58;;;;;;;25.95;15.27;;;;;;;;;;5045447;28;20504;-79
2021/07/23 08:22:24;;;;;;;18.48;13.52;;;;;;;;;;5042082;28;20053;-79
2021/07/23 08:24:51;;;;;;;22.17;14.48;;;;;;;;;;5044932;28;20036;-79
2021/07/23 08:27:18;;;;;;;20.70;13.98;;;;;;;;;;5045804;28;20033;-79
2021/07/23 08:29:44;;;;;;;22.15;14.48;;;;;;;;;;5047445;28;20167;-79
2021/07/23 08:32:11;;;;;;;25.50;14.48;;;;;;;;;;5042231;28;20029;-79
2021/07/23 08:34:37;;;;;;;23.13;13.70;;;;;;;;;;5044026;28;20025;-78
2021/07/23 08:37:04;;;;;;;25.55;13.60;;;;;;;;;;5045964;28;20044;-79
2021/07/23 08:39:29;;;;;;;20.25;13.73;;;;;;;;;;5044675;28;20024;-79
2021/07/23 08:41:56;;;;;;;24.80;15.23;;;;;;;;;;5046613;28;20025;-79
2021/07/23 08:44:22;;;;;;;26.13;13.63;;;;;;;;;;5047376;28;20029;-80
2021/07/23 08:46:49;;;;;;;20.73;13.98;;;;;;;;;;5041804;28;20025;-80
2021/07/23 08:49:16;;;;;;;22.20;14.38;;;;;;;;;;5041243;28;20025;-81
2021/07/23 08:51:51;;;;;;;20.08;13.60;;;;;;;;;;5039007;28;20040;-81
2021/07/23 08:54:16;;;;;;;22.63;14.75;;;;;;;;;;5041539;28;20361;-80
2021/07/23 08:56:48;;;;;;;24.15;14.02;;;;;;;;;;5043205;28;20083;-80
2021/07/23 08:59:14;;;;;;;23.45;13.45;;;;;;;;;;5043167;28;20032;-80
2021/07/23 09:01:59;;;;;;;20.92;13.70;;;;;;;;;;5045462;28;20447;-80
2021/07/23 09:04:39;;;;;;;20.27;13.70;;;;;;;;;;5042748;28;20106;-80
2021/07/23 09:07:20;;;;;;;;;;;;;;;;;;5045148;28;20036;-80
2021/07/23 09:10:06;;;;;;;20.17;12.70;;;;;;;;;;5042832;28;19912;-80
2021/07/23 09:12:45;;;;;;;21.83;13.45;;;;;;;;;;5042854;28;20100;-80
2021/07/23 09:15:18;;;;;;;21.20;13.82;;;;;;;;;;5045319;28;20135;-80
2021/07/23 09:17:44;;;;;;;22.80;14.25;;;;;;;;;;5044777;28;20029;-80
2021/07/23 09:20:10;;;;;;;22.52;14.93;;;;;;;;;;5044039;28;20133;-80
2021/07/23 09:22:44;;;;;;;19.92;14.57;;;;;;;;;;5038791;28;20042;-80
2021/07/23 09:25:10;;;;;;;20.67;13.48;;;;;;;;;;5044739;28;20056;-80
2021/07/23 09:27:35;;;;;;;22.50;14.65;;;;;;;;;;5042013;28;20147;-81
2021/07/23 09:30:02;;;;;;;18.02;13.30;;;;;;;;;;5039605;28;20084;-80
2021/07/23 09:32:28;;;;;;;21.63;13.68;;;;;;;;;;5037062;28;20422;-82
2021/07/23 09:35:14;;;;;;;20.70;14.27;;;;;;;;;;5037926;28;20091;-83
2021/07/23 09:37:55;;;;;;;20.95;14.18;;;;;;;;;;5040492;28;20116;-83
2021/07/23 09:40:22;;;;;;;18.00;13.45;;;;;;;;;;5047858;28;20035;-84
2021/07/23 09:42:57;;;;;;;22.60;13.93;;;;;;;;;;5043508;28;20032;-84
2021/07/23 09:45:32;;;;;;;21.08;13.10;;;;;;;;;;5046494;28;20028;-84
2021/07/23 09:48:08;;;;;;;25.35;13.48;;;;;;;;;;5044233;28;20056;-83
2021/07/23 09:50:46;;;;;;;19.88;13.32;;;;;;;;;;5040978;28;20033;-84
2021/07/23 09:53:14;;;;;;;20.05;13.88;;;;;;;;;;5042592;28;20373;-85
2021/07/23 09:55:43;;;;;;;21.05;13.63;;;;;;;;;;5036388;28;20026;-84
2021/07/23 09:58:08;;;;;;;18.08;13.85;;;;;;;;;;5044494;28;20124;-84
2021/07/23 10:00:41;;;;;;;18.55;13.75;;;;;;;;;;5039274;28;20247;-81
2021/07/23 10:03:14;;;;;;;20.17;13.45;;;;;;;;;;5040709;28;20032;-81
2021/07/23 10:05:50;;;;;;;19.98;13.32;;;;;;;;;;5041580;28;20489;-81
2021/07/23 10:08:22;;;;;;;18.40;13.73;;;;;;;;;;5044897;28;20029;-81
2021/07/23 10:10:51;;;;;;;18.08;13.63;;;;;;;;;;5043592;28;20025;-81
2021/07/23 10:13:22;;;;;;;18.70;13.02;;;;;;;;;;5042153;28;20178;-80
2021/07/23 10:15:48;;;;;;;18.65;13.27;;;;;;;;;;5044355;28;20037;-81
2021/07/23 10:18:15;;;;;;;18.20;12.55;;;;;;;;;;5044678;28;20025;-80
2021/07/23 10:20:40;;;;;;;17.00;12.50;;;;;;;;;;5042033;28;20124;-81
2021/07/23 10:23:06;;;;;;;19.15;12.98;;;;;;;;;;5043229;28;20037;-80
2021/07/23 10:25:34;;;;;;;17.60;12.32;;;;;;;;;;5040988;28;20493;-81
2021/07/23 10:28:01;;;;;;;23.90;13.05;;;;;;;;;;5045701;28;20029;-81
2021/07/23 10:30:34;;;;;;;19.38;12.82;;;;;;;;;;5039008;28;20029;-81
2021/07/23 10:33:01;;;;;;;21.27;12.48;;;;;;;;;;5042707;28;20100;-82
2021/07/23 10:35:26;;;;;;;17.58;12.05;;;;;;;;;;5040947;28;20029;-81
2021/07/23 10:37:53;;;;;;;16.52;11.65;;;;;;;;;;5038391;28;20374;-81
2021/07/23 10:40:22;;;;;;;18.88;12.63;;;;;;;;;;5039276;28;20037;-81
2021/07/23 10:42:49;;;;;;;17.17;12.40;;;;;;;;;;5039461;28;20105;-80
2021/07/23 10:45:19;;;;;;;18.08;12.25;;;;;;;;;;5042897;28;20037;-81
2021/07/23 10:47:49;;;;;;;23.98;12.55;;;;;;;;;;5041151;28;20029;-81
2021/07/23 10:50:22;;;;;;;22.15;13.35;;;;;;;;;;5050488;28;20029;-81
2021/07/23 10:52:48;;;;;;;16.70;12.02;;;;;;;;;;5042017;28;20022;-80
2021/07/23 10:55:16;;;;;;;17.80;12.38;;;;;;;;;;5034307;28;20411;-80
2021/07/23 10:57:42;;;;;;;30.80;12.53;;;;;;;;;;5041397;28;20486;-81
2021/07/23 11:00:09;;;;;;;20.38;12.02;;;;;;;;;;5041407;28;20067;-81
2021/07/23 11:02:34;;;;;;;19.40;12.55;;;;;;;;;;5040895;28;20103;-81
2021/07/23 11:05:07;;;;;;;18.10;12.75;;;;;;;;;;5037715;28;20033;-81
2021/07/23 11:07:33;;;;;;;15.90;12.05;;;;;;;;;;5042250;28;20127;-81
2021/07/23 11:09:59;;;;;;;16.35;12.25;;;;;;;;;;5039730;28;20108;-80
2021/07/23 11:12:28;;;;;;;16.90;11.75;;;;;;;;;;5041299;28;20026;-80
2021/07/23 11:14:53;;;;;;;18.58;11.88;;;;;;;;;;5048036;28;20446;-81
2021/07/23 11:17:19;;;;;;;19.77;12.52;;;;;;;;;;5044671;28;20033;-82
2021/07/23 11:19:50;;;;;;;17.02;11.93;;;;;;;;;;5048953;28;20029;-82
2021/07/23 11:22:27;;;;;;;18.05;12.00;;;;;;;;;;5042555;28;20059;-81
2021/07/23 11:24:57;;;;;;;15.30;10.90;;;;;;;;;;5041703;28;20524;-83
2021/07/23 11:27:24;;;;;;;16.70;11.52;;;;;;;;;;5039863;28;20471;-81
2021/07/23 11:29:50;;;;;;;17.80;12.35;;;;;;;;;;5041317;28;20029;-80
2021/07/23 11:32:18;;;;;;;16.02;12.02;;;;;;;;;;5048664;28;20078;-80
2021/07/23 11:34:47;;;;;;;17.40;12.50;;;;;;;;;;5046832;28;20037;-80
2021/07/23 11:37:16;;;;;;;18.67;11.95;;;;;;;;;;5041794;28;20029;-80
2021/07/23 11:39:53;;;;;;;19.30;11.80;;;;;;;;;;5041565;28;20489;-78
2021/07/23 11:42:19;;;;;;;19.40;12.65;;;;;;;;;;5048726;28;20464;-78
2021/07/23 11:44:54;;;;;;;16.98;12.25;;;;;;;;;;5044165;28;20139;-78
2021/07/23 11:47:33;;;;;;;14.23;11.48;;;;;;;;;;5045526;28;20489;-78
2021/07/23 11:50:01;;;;;;;16.33;11.48;;;;;;;;;;5042547;28;20028;-78
2021/07/23 11:52:27;;;;;;;18.43;11.83;;;;;;;;;;5040170;28;20056;-78
2021/07/23 11:55:07;;;;;;;16.05;11.80;;;;;;;;;;5043898;28;20801;-79
2021/07/23 11:57:47;;;;;;;14.55;11.07;;;;;;;;;;5041660;28;20067;-78
2021/07/23 12:00:24;;;;;;;15.52;11.05;;;;;;;;;;5044788;28;20031;-79
2021/07/23 12:02:54;;;;;;;21.52;11.77;;;;;;;;;;5042289;28;20033;-78
2021/07/23 12:05:21;;;;;;;16.58;12.02;;;;;;;;;;5042036;28;20075;-78
2021/07/23 12:08:02;;;;;;;14.70;11.25;;;;;;;;;;5047865;28;20068;-79
2021/07/23 12:10:31;;;;;;;14.85;11.05;;;;;;;;;;5047109;28;20036;-78
2021/07/23 12:13:04;;;;;;;16.60;11.40;;;;;;;;;;5046586;28;20079;-79
2021/07/23 12:15:30;;;;;;;16.95;12.52;;;;;;;;;;5044069;28;20103;-79
2021/07/23 12:17:56;;;;;;;22.05;12.38;;;;;;;;;;5042294;28;20055;-79
2021/07/23 12:20:28;;;;;;;16.02;11.10;;;;;;;;;;5036998;28;20120;-78
2021/07/23 12:22:58;;;;;;;14.93;11.40;;;;;;;;;;5040879;28;20489;-78
2021/07/23 12:25:24;;;;;;;21.35;11.98;;;;;;;;;;5043707;28;20021;-79
2021/07/23 12:28:14;;;;;;;15.60;11.55;;;;;;;;;;5038886;28;20119;-79
2021/07/23 12:30:41;;;;;;;15.88;11.93;;;;;;;;;;5039720;28;20032;-79
2021/07/23 12:33:16;;;;;;;17.23;13.07;;;;;;;;;;5041441;28;20032;-79
2021/07/23 12:35:43;;;;;;;20.60;12.55;;;;;;;;;;5039738;28;20123;-80
2021/07/23 12:38:09;;;;;;;13.52;11.35;;;;;;;;;;5040465;28;20400;-79
2021/07/23 12:40:42;;;;;;;13.30;11.70;;;;;;;;;;5041384;28;20028;-79
2021/07/23 12:43:12;;;;;;;15.80;11.93;;;;;;;;;;5047015;28;20052;-79
2021/07/23 12:45:37;;;;;;;15.48;11.85;;;;;;;;;;5042894;28;20028;-79
2021/07/23 12:48:09;;;;;;;15.63;11.82;;;;;;;;;;5036305;28;20507;-81
2021/07/23 12:50:35;;;;;;;15.90;12.07;;;;;;;;;;5046885;28;20104;-81
2021/07/23 12:53:00;;;;;;;19.38;12.10;;;;;;;;;;5046757;28;20124;-80
2021/07/23 12:55:28;;;;;;;16.48;11.93;;;;;;;;;;5045631;28;20017;-81
2021/07/23 12:57:53;;;;;;;20.07;12.73;;;;;;;;;;5043995;28;20112;-81
2021/07/23 13:00:23;;;;;;;18.52;11.48;;;;;;;;;;5043796;28;20116;-81
2021/07/23 13:02:49;;;;;;;20.75;11.85;;;;;;;;;;5038578;28;20074;-81
2021/07/23 13:05:15;;;;;;;13.70;11.40;;;;;;;;;;5040542;28;20144;-80
2021/07/23 13:07:44;;;;;;;14.32;11.10;;;;;;;;;;5044057;28;20032;-79
2021/07/23 13:10:17;;;;;;;16.52;11.30;;;;;;;;;;5036292;28;20392;-80
2021/07/23 13:12:46;;;;;;;16.38;11.40;;;;;;;;;;5058911;28;20128;-80
2021/07/23 13:15:15;;;;;;;16.08;11.73;;;;;;;;;;5043110;28;20380;-80
2021/07/23 13:17:41;;;;;;;16.80;11.57;;;;;;;;;;5042451;28;20281;-80
2021/07/23 13:20:07;;;;;;;16.95;11.27;;;;;;;;;;5042351;28;20104;-80
2021/07/23 13:22:36;;;;;;;14.77;11.45;;;;;;;;;;5041743;28;20781;-80
2021/07/23 13:25:06;;;;;;;14.77;11.20;;;;;;;;;;5046166;28;20072;-80
2021/07/23 13:27:32;;;;;;;15.32;11.68;;;;;;;;;;5043904;28;20441;-80
2021/07/23 13:29:57;;;;;;;17.65;11.52;;;;;;;;;;5043629;28;20059;-80
2021/07/23 13:32:23;;;;;;;16.90;12.02;;;;;;;;;;5036754;28;20393;-81
2021/07/23 13:34:48;;;;;;;15.60;11.38;;;;;;;;;;5059331;28;20022;-81
2021/07/23 13:37:21;;;;;;;18.00;11.63;;;;;;;;;;5042992;28;20427;-80
2021/07/23 13:39:52;;;;;;;15.32;11.65;;;;;;;;;;5039326;28;20033;-81
2021/07/23 13:42:19;;;;;;;16.60;12.05;;;;;;;;;;5038688;28;20032;-81
2021/07/23 13:44:44;;;;;;;16.67;11.80;;;;;;;;;;5037782;28;20025;-80
2021/07/23 13:47:10;;;;;;;18.98;12.10;;;;;;;;;;5044971;28;20499;-79
2021/07/23 13:49:35;;;;;;;14.45;12.10;;;;;;;;;;5039880;28;20040;-79
2021/07/23 13:52:01;;;;;;;15.80;11.43;;;;;;;;;;5044060;28;20040;-78
2021/07/23 13:54:26;;;;;;;15.85;10.73;;;;;;;;;;5042098;28;20483;-80
2021/07/23 13:56:53;;;;;;;15.60;11.93;;;;;;;;;;5037308;28;20021;-80
2021/07/23 13:59:18;;;;;;;19.75;12.02;;;;;;;;;;5041512;28;20032;-80
2021/07/23 14:01:44;;;;;;;17.15;11.85;;;;;;;;;;5042600;28;20393;-83
2021/07/23 14:04:11;;;;;;;17.42;11.93;;;;;;;;;;5047028;28;20041;-82
2021/07/23 14:06:36;;;;;;;19.77;12.35;;;;;;;;;;5038700;28;20056;-81
2021/07/23 14:09:02;;;;;;;17.83;13.05;;;;;;;;;;5039076;28;20026;-80
2021/07/23 14:11:27;;;;;;;17.17;12.13;;;;;;;;;;5035017;28;20508;-80
2021/07/23 14:13:53;;;;;;;17.65;11.75;;;;;;;;;;5044162;28;20086;-82
2021/07/23 14:16:20;;;;;;;17.02;12.07;;;;;;;;;;5044790;28;20029;-82